sensor_id;sensor_type;location;lat;lon;timestamp;P1;durP1;ratioP1;P2;durP2;ratioP2
1410;SDS011;700;51.906;8.404;2023-04-06T00:00:56;12.83;;;6.60;;
1410;SDS011;700;51.906;8.404;2023-04-06T00:05:59;8.10;;;6.00;;
1410;SDS011;700;51.906;8.404;2023-04-06T00:11:02;6.40;;;5.30;;
1410;SDS011;700;51.906;8.404;2023-04-06T00:16:02;9.60;;;6.63;;
1410;SDS011;700;51.906;8.404;2023-04-06T00:21:05;7.40;;;6.17;;
1410;SDS011;700;51.906;8.404;2023-04-06T00:26:05;6.20;;;5.60;;
1410;SDS011;700;51.906;8.404;2023-04-06T00:31:06;7.67;;;5.87;;
1410;SDS011;700;51.906;8.404;2023-04-06T00:36:09;8.30;;;6.53;;
1410;SDS011;700;51.906;8.404;2023-04-06T00:41:10;7.10;;;6.40;;
1410;SDS011;700;51.906;8.404;2023-04-06T00:46:13;9.90;;;6.40;;
1410;SDS011;700;51.906;8.404;2023-04-06T00:51:16;8.00;;;6.90;;
1410;SDS011;700;51.906;8.404;2023-04-06T00:56:22;12.43;;;6.17;;
1410;SDS011;700;51.906;8.404;2023-04-06T01:01:26;8.40;;;6.90;;
1410;SDS011;700;51.906;8.404;2023-04-06T01:06:28;9.20;;;7.20;;
1410;SDS011;700;51.906;8.404;2023-04-06T01:11:29;8.67;;;6.93;;
1410;SDS011;700;51.906;8.404;2023-04-06T01:16:32;9.27;;;6.83;;
1410;SDS011;700;51.906;8.404;2023-04-06T01:21:33;10.57;;;8.03;;
1410;SDS011;700;51.906;8.404;2023-04-06T01:26:34;8.00;;;6.27;;
1410;SDS011;700;51.906;8.404;2023-04-06T01:31:37;9.13;;;7.20;;
1410;SDS011;700;51.906;8.404;2023-04-06T01:36:38;8.50;;;6.93;;
1410;SDS011;700;51.906;8.404;2023-04-06T01:41:39;9.50;;;6.53;;
1410;SDS011;700;51.906;8.404;2023-04-06T01:46:40;9.27;;;7.40;;
1410;SDS011;700;51.906;8.404;2023-04-06T01:51:45;10.63;;;8.37;;
1410;SDS011;700;51.906;8.404;2023-04-06T01:56:51;10.30;;;8.03;;
1410;SDS011;700;51.906;8.404;2023-04-06T02:01:52;10.37;;;8.23;;
1410;SDS011;700;51.906;8.404;2023-04-06T02:06:53;7.87;;;7.07;;
1410;SDS011;700;51.906;8.404;2023-04-06T02:11:53;9.77;;;7.00;;
1410;SDS011;700;51.906;8.404;2023-04-06T02:16:55;7.90;;;7.00;;
1410;SDS011;700;51.906;8.404;2023-04-06T02:21:56;10.43;;;7.77;;
1410;SDS011;700;51.906;8.404;2023-04-06T02:26:57;7.93;;;7.03;;
1410;SDS011;700;51.906;8.404;2023-04-06T02:31:58;9.20;;;7.77;;
1410;SDS011;700;51.906;8.404;2023-04-06T02:36:58;8.13;;;7.33;;
1410;SDS011;700;51.906;8.404;2023-04-06T02:41:59;8.43;;;7.53;;
1410;SDS011;700;51.906;8.404;2023-04-06T02:47:00;9.57;;;8.03;;
1410;SDS011;700;51.906;8.404;2023-04-06T02:52:01;11.00;;;8.47;;
1410;SDS011;700;51.906;8.404;2023-04-06T02:57:04;13.00;;;8.00;;
1410;SDS011;700;51.906;8.404;2023-04-06T03:02:05;14.20;;;8.50;;
1410;SDS011;700;51.906;8.404;2023-04-06T03:07:06;10.00;;;8.07;;
1410;SDS011;700;51.906;8.404;2023-04-06T03:12:09;10.17;;;8.00;;
1410;SDS011;700;51.906;8.404;2023-04-06T03:17:12;11.63;;;8.63;;
1410;SDS011;700;51.906;8.404;2023-04-06T03:22:15;9.73;;;8.00;;
1410;SDS011;700;51.906;8.404;2023-04-06T03:27:16;9.70;;;7.83;;
1410;SDS011;700;51.906;8.404;2023-04-06T03:32:23;13.07;;;9.23;;
1410;SDS011;700;51.906;8.404;2023-04-06T03:37:24;9.60;;;8.43;;
1410;SDS011;700;51.906;8.404;2023-04-06T03:42:30;11.77;;;9.07;;
1410;SDS011;700;51.906;8.404;2023-04-06T03:47:34;12.60;;;9.10;;
1410;SDS011;700;51.906;8.404;2023-04-06T03:52:37;9.70;;;8.53;;
1410;SDS011;700;51.906;8.404;2023-04-06T03:57:40;9.57;;;8.37;;
1410;SDS011;700;51.906;8.404;2023-04-06T04:02:41;8.87;;;7.87;;
1410;SDS011;700;51.906;8.404;2023-04-06T04:07:42;11.20;;;8.30;;
1410;SDS011;700;51.906;8.404;2023-04-06T04:12:45;10.23;;;8.23;;
1410;SDS011;700;51.906;8.404;2023-04-06T04:17:45;14.00;;;8.87;;
1410;SDS011;700;51.906;8.404;2023-04-06T04:22:49;15.23;;;9.07;;
1410;SDS011;700;51.906;8.404;2023-04-06T04:27:49;15.03;;;9.20;;
1410;SDS011;700;51.906;8.404;2023-04-06T04:32:52;9.93;;;8.00;;
1410;SDS011;700;51.906;8.404;2023-04-06T04:37:53;11.20;;;9.00;;
1410;SDS011;700;51.906;8.404;2023-04-06T04:42:54;9.40;;;8.40;;
1410;SDS011;700;51.906;8.404;2023-04-06T04:47:55;10.30;;;8.10;;
1410;SDS011;700;51.906;8.404;2023-04-06T04:52:58;11.43;;;9.43;;
1410;SDS011;700;51.906;8.404;2023-04-06T04:57:59;14.03;;;11.07;;
1410;SDS011;700;51.906;8.404;2023-04-06T05:02:59;13.13;;;9.77;;
1410;SDS011;700;51.906;8.404;2023-04-06T05:08:01;11.33;;;8.27;;
1410;SDS011;700;51.906;8.404;2023-04-06T05:13:01;11.70;;;8.47;;
1410;SDS011;700;51.906;8.404;2023-04-06T05:18:02;9.37;;;8.37;;
1410;SDS011;700;51.906;8.404;2023-04-06T05:23:03;12.33;;;8.77;;
1410;SDS011;700;51.906;8.404;2023-04-06T05:28:04;11.67;;;8.20;;
1410;SDS011;700;51.906;8.404;2023-04-06T05:33:05;12.53;;;9.07;;
1410;SDS011;700;51.906;8.404;2023-04-06T05:38:07;10.10;;;8.30;;
1410;SDS011;700;51.906;8.404;2023-04-06T05:43:10;10.10;;;8.20;;
1410;SDS011;700;51.906;8.404;2023-04-06T05:48:11;11.80;;;8.60;;
1410;SDS011;700;51.906;8.404;2023-04-06T05:53:12;13.20;;;10.10;;
1410;SDS011;700;51.906;8.404;2023-04-06T05:58:12;11.70;;;8.70;;
1410;SDS011;700;51.906;8.404;2023-04-06T06:03:13;11.00;;;8.63;;
1410;SDS011;700;51.906;8.404;2023-04-06T06:08:15;13.50;;;9.30;;
1410;SDS011;700;51.906;8.404;2023-04-06T06:13:15;13.27;;;9.10;;
1410;SDS011;700;51.906;8.404;2023-04-06T06:18:16;12.30;;;8.10;;
1410;SDS011;700;51.906;8.404;2023-04-06T06:23:17;9.60;;;7.97;;
1410;SDS011;700;51.906;8.404;2023-04-06T06:28:17;10.93;;;7.50;;
1410;SDS011;700;51.906;8.404;2023-04-06T06:33:18;10.60;;;8.10;;
1410;SDS011;700;51.906;8.404;2023-04-06T06:38:19;9.53;;;7.50;;
1410;SDS011;700;51.906;8.404;2023-04-06T06:43:20;13.23;;;8.33;;
1410;SDS011;700;51.906;8.404;2023-04-06T06:48:20;11.70;;;7.50;;
1410;SDS011;700;51.906;8.404;2023-04-06T06:53:21;13.93;;;8.30;;
1410;SDS011;700;51.906;8.404;2023-04-06T06:58:22;8.87;;;7.50;;
1410;SDS011;700;51.906;8.404;2023-04-06T07:03:23;9.30;;;7.53;;
1410;SDS011;700;51.906;8.404;2023-04-06T07:08:26;8.80;;;7.33;;
1410;SDS011;700;51.906;8.404;2023-04-06T07:13:27;8.97;;;6.73;;
1410;SDS011;700;51.906;8.404;2023-04-06T07:18:30;9.10;;;6.87;;
1410;SDS011;700;51.906;8.404;2023-04-06T07:23:31;10.53;;;7.90;;
1410;SDS011;700;51.906;8.404;2023-04-06T07:28:31;8.80;;;7.17;;
1410;SDS011;700;51.906;8.404;2023-04-06T07:33:32;8.67;;;7.67;;
1410;SDS011;700;51.906;8.404;2023-04-06T07:38:33;8.83;;;7.40;;
1410;SDS011;700;51.906;8.404;2023-04-06T07:43:33;11.03;;;7.23;;
1410;SDS011;700;51.906;8.404;2023-04-06T07:48:36;10.33;;;7.30;;
1410;SDS011;700;51.906;8.404;2023-04-06T07:53:37;8.63;;;7.23;;
1410;SDS011;700;51.906;8.404;2023-04-06T07:58:40;9.30;;;6.27;;
1410;SDS011;700;51.906;8.404;2023-04-06T08:03:41;9.50;;;8.07;;
1410;SDS011;700;51.906;8.404;2023-04-06T08:08:44;8.33;;;7.37;;
1410;SDS011;700;51.906;8.404;2023-04-06T08:13:45;8.50;;;7.23;;
1410;SDS011;700;51.906;8.404;2023-04-06T08:18:45;8.20;;;7.20;;
1410;SDS011;700;51.906;8.404;2023-04-06T08:23:46;9.53;;;7.13;;
1410;SDS011;700;51.906;8.404;2023-04-06T08:28:47;7.90;;;7.07;;
1410;SDS011;700;51.906;8.404;2023-04-06T08:33:50;8.37;;;7.50;;
1410;SDS011;700;51.906;8.404;2023-04-06T08:38:51;9.63;;;7.40;;
1410;SDS011;700;51.906;8.404;2023-04-06T08:49:00;8.17;;;6.90;;
1410;SDS011;700;51.906;8.404;2023-04-06T08:54:01;8.70;;;7.23;;
1410;SDS011;700;51.906;8.404;2023-04-06T08:59:07;9.83;;;8.27;;
1410;SDS011;700;51.906;8.404;2023-04-06T09:04:09;8.07;;;7.17;;
1410;SDS011;700;51.906;8.404;2023-04-06T09:09:11;9.83;;;8.60;;
1410;SDS011;700;51.906;8.404;2023-04-06T09:14:12;9.80;;;8.33;;
1410;SDS011;700;51.906;8.404;2023-04-06T09:19:12;11.80;;;8.50;;
1410;SDS011;700;51.906;8.404;2023-04-06T09:24:13;9.73;;;8.03;;
1410;SDS011;700;51.906;8.404;2023-04-06T09:29:23;8.10;;;7.30;;
1410;SDS011;700;51.906;8.404;2023-04-06T09:34:27;9.27;;;8.43;;
1410;SDS011;700;51.906;8.404;2023-04-06T09:39:28;10.13;;;8.40;;
1410;SDS011;700;51.906;8.404;2023-04-06T09:44:31;8.30;;;7.50;;
1410;SDS011;700;51.906;8.404;2023-04-06T09:49:34;9.10;;;8.40;;
1410;SDS011;700;51.906;8.404;2023-04-06T09:54:35;9.10;;;8.30;;
1410;SDS011;700;51.906;8.404;2023-04-06T10:00:23;10.00;;;8.67;;
1410;SDS011;700;51.906;8.404;2023-04-06T10:10:12;11.03;;;9.00;;
1410;SDS011;700;51.906;8.404;2023-04-06T10:15:15;10.70;;;9.80;;
1410;SDS011;700;51.906;8.404;2023-04-06T10:20:23;9.77;;;8.73;;
1410;SDS011;700;51.906;8.404;2023-04-06T10:25:35;11.70;;;10.60;;
1410;SDS011;700;51.906;8.404;2023-04-06T10:30:43;10.93;;;9.53;;
1410;SDS011;700;51.906;8.404;2023-04-06T10:35:44;11.93;;;10.83;;
1410;SDS011;700;51.906;8.404;2023-04-06T10:40:45;11.33;;;10.23;;
1410;SDS011;700;51.906;8.404;2023-04-06T10:45:55;12.47;;;9.70;;
1410;SDS011;700;51.906;8.404;2023-04-06T10:51:00;14.40;;;12.90;;
1410;SDS011;700;51.906;8.404;2023-04-06T10:56:03;11.43;;;10.47;;
1410;SDS011;700;51.906;8.404;2023-04-06T11:01:09;11.93;;;10.83;;
1410;SDS011;700;51.906;8.404;2023-04-06T11:06:17;13.33;;;12.23;;
1410;SDS011;700;51.906;8.404;2023-04-06T11:11:19;12.77;;;11.67;;
1410;SDS011;700;51.906;8.404;2023-04-06T11:21:37;12.37;;;10.87;;
1410;SDS011;700;51.906;8.404;2023-04-06T11:26:43;12.10;;;11.10;;
1410;SDS011;700;51.906;8.404;2023-04-06T11:31:45;11.87;;;10.67;;
1410;SDS011;700;51.906;8.404;2023-04-06T11:36:54;11.40;;;10.30;;
1410;SDS011;700;51.906;8.404;2023-04-06T11:41:57;11.43;;;10.23;;
1410;SDS011;700;51.906;8.404;2023-04-06T11:47:03;13.33;;;10.30;;
1410;SDS011;700;51.906;8.404;2023-04-06T11:52:18;10.90;;;9.90;;
1410;SDS011;700;51.906;8.404;2023-04-06T11:57:21;11.13;;;10.13;;
1410;SDS011;700;51.906;8.404;2023-04-06T12:02:28;10.20;;;9.20;;
1410;SDS011;700;51.906;8.404;2023-04-06T12:07:29;13.60;;;11.57;;
1410;SDS011;700;51.906;8.404;2023-04-06T12:12:30;11.20;;;10.10;;
1410;SDS011;700;51.906;8.404;2023-04-06T12:17:31;10.60;;;9.60;;
1410;SDS011;700;51.906;8.404;2023-04-06T12:22:31;10.57;;;9.47;;
1410;SDS011;700;51.906;8.404;2023-04-06T12:27:32;10.43;;;9.33;;
1410;SDS011;700;51.906;8.404;2023-04-06T12:32:33;10.67;;;8.93;;
1410;SDS011;700;51.906;8.404;2023-04-06T12:37:34;10.10;;;9.10;;
1410;SDS011;700;51.906;8.404;2023-04-06T12:42:38;10.27;;;9.33;;
1410;SDS011;700;51.906;8.404;2023-04-06T12:47:39;10.20;;;9.10;;
1410;SDS011;700;51.906;8.404;2023-04-06T12:52:40;11.80;;;10.03;;
1410;SDS011;700;51.906;8.404;2023-04-06T12:57:40;10.57;;;9.10;;
1410;SDS011;700;51.906;8.404;2023-04-06T13:02:41;12.70;;;9.20;;
1410;SDS011;700;51.906;8.404;2023-04-06T13:07:48;12.30;;;9.67;;
1410;SDS011;700;51.906;8.404;2023-04-06T13:12:51;11.80;;;10.60;;
1410;SDS011;700;51.906;8.404;2023-04-06T13:17:54;11.50;;;10.30;;
1410;SDS011;700;51.906;8.404;2023-04-06T13:22:59;12.23;;;11.03;;
1410;SDS011;700;51.906;8.404;2023-04-06T13:28:02;12.00;;;10.77;;
1410;SDS011;700;51.906;8.404;2023-04-06T13:33:05;12.47;;;11.20;;
1410;SDS011;700;51.906;8.404;2023-04-06T13:38:06;12.27;;;11.00;;
1410;SDS011;700;51.906;8.404;2023-04-06T13:43:09;12.57;;;11.20;;
1410;SDS011;700;51.906;8.404;2023-04-06T13:48:10;13.13;;;11.57;;
1410;SDS011;700;51.906;8.404;2023-04-06T13:53:13;15.13;;;13.40;;
1410;SDS011;700;51.906;8.404;2023-04-06T13:58:14;15.37;;;12.03;;
1410;SDS011;700;51.906;8.404;2023-04-06T14:03:17;15.23;;;11.93;;
1410;SDS011;700;51.906;8.404;2023-04-06T14:08:21;13.60;;;11.30;;
1410;SDS011;700;51.906;8.404;2023-04-06T14:13:21;16.40;;;13.13;;
1410;SDS011;700;51.906;8.404;2023-04-06T14:18:22;16.17;;;14.07;;
1410;SDS011;700;51.906;8.404;2023-04-06T14:23:23;13.17;;;11.77;;
1410;SDS011;700;51.906;8.404;2023-04-06T14:28:26;15.30;;;12.33;;
1410;SDS011;700;51.906;8.404;2023-04-06T14:33:27;14.70;;;12.37;;
1410;SDS011;700;51.906;8.404;2023-04-06T14:38:32;15.20;;;12.33;;
1410;SDS011;700;51.906;8.404;2023-04-06T14:43:36;15.30;;;13.70;;
1410;SDS011;700;51.906;8.404;2023-04-06T14:48:39;19.97;;;13.80;;
1410;SDS011;700;51.906;8.404;2023-04-06T14:53:40;16.27;;;13.37;;
1410;SDS011;700;51.906;8.404;2023-04-06T14:58:44;14.40;;;11.60;;
1410;SDS011;700;51.906;8.404;2023-04-06T15:03:45;14.70;;;12.87;;
1410;SDS011;700;51.906;8.404;2023-04-06T15:08:46;15.50;;;11.93;;
1410;SDS011;700;51.906;8.404;2023-04-06T15:13:51;14.83;;;12.40;;
1410;SDS011;700;51.906;8.404;2023-04-06T15:18:52;15.30;;;12.43;;
1410;SDS011;700;51.906;8.404;2023-04-06T15:23:55;15.97;;;11.43;;
1410;SDS011;700;51.906;8.404;2023-04-06T15:28:55;13.80;;;11.00;;
1410;SDS011;700;51.906;8.404;2023-04-06T15:33:56;16.03;;;11.50;;
1410;SDS011;700;51.906;8.404;2023-04-06T15:39:02;14.33;;;11.00;;
1410;SDS011;700;51.906;8.404;2023-04-06T15:44:03;15.30;;;11.37;;
1410;SDS011;700;51.906;8.404;2023-04-06T15:49:03;20.20;;;15.27;;
1410;SDS011;700;51.906;8.404;2023-04-06T15:54:06;14.43;;;12.60;;
1410;SDS011;700;51.906;8.404;2023-04-06T15:59:07;15.37;;;11.80;;
1410;SDS011;700;51.906;8.404;2023-04-06T16:04:08;15.90;;;11.93;;
1410;SDS011;700;51.906;8.404;2023-04-06T16:09:12;13.50;;;10.67;;
1410;SDS011;700;51.906;8.404;2023-04-06T16:14:13;16.60;;;10.40;;
1410;SDS011;700;51.906;8.404;2023-04-06T16:19:14;14.40;;;10.73;;
1410;SDS011;700;51.906;8.404;2023-04-06T16:24:17;11.67;;;10.30;;
1410;SDS011;700;51.906;8.404;2023-04-06T16:29:22;12.93;;;10.20;;
1410;SDS011;700;51.906;8.404;2023-04-06T16:34:24;13.60;;;10.30;;
1410;SDS011;700;51.906;8.404;2023-04-06T16:39:25;12.23;;;10.83;;
1410;SDS011;700;51.906;8.404;2023-04-06T16:44:25;13.60;;;10.80;;
1410;SDS011;700;51.906;8.404;2023-04-06T16:49:27;14.83;;;10.30;;
1410;SDS011;700;51.906;8.404;2023-04-06T16:54:27;14.57;;;11.60;;
1410;SDS011;700;51.906;8.404;2023-04-06T16:59:31;13.27;;;9.50;;
1410;SDS011;700;51.906;8.404;2023-04-06T17:04:34;13.17;;;11.47;;
1410;SDS011;700;51.906;8.404;2023-04-06T17:09:37;11.13;;;9.87;;
1410;SDS011;700;51.906;8.404;2023-04-06T17:14:40;11.73;;;10.33;;
1410;SDS011;700;51.906;8.404;2023-04-06T17:19:40;15.27;;;10.50;;
1410;SDS011;700;51.906;8.404;2023-04-06T17:24:41;12.10;;;10.80;;
1410;SDS011;700;51.906;8.404;2023-04-06T17:29:42;12.90;;;10.90;;
1410;SDS011;700;51.906;8.404;2023-04-06T17:34:42;11.13;;;9.93;;
1410;SDS011;700;51.906;8.404;2023-04-06T17:39:45;11.37;;;10.13;;
1410;SDS011;700;51.906;8.404;2023-04-06T17:44:46;12.50;;;9.60;;
1410;SDS011;700;51.906;8.404;2023-04-06T17:49:50;9.83;;;8.83;;
1410;SDS011;700;51.906;8.404;2023-04-06T17:54:51;9.83;;;8.83;;
1410;SDS011;700;51.906;8.404;2023-04-06T17:59:51;14.00;;;10.27;;
1410;SDS011;700;51.906;8.404;2023-04-06T18:04:55;12.13;;;8.43;;
1410;SDS011;700;51.906;8.404;2023-04-06T18:09:56;11.43;;;8.00;;
1410;SDS011;700;51.906;8.404;2023-04-06T18:14:58;10.90;;;8.40;;
1410;SDS011;700;51.906;8.404;2023-04-06T18:20:01;11.17;;;8.87;;
1410;SDS011;700;51.906;8.404;2023-04-06T18:25:03;9.17;;;8.13;;
1410;SDS011;700;51.906;8.404;2023-04-06T18:30:04;9.50;;;8.50;;
1410;SDS011;700;51.906;8.404;2023-04-06T18:35:08;8.97;;;8.07;;
1410;SDS011;700;51.906;8.404;2023-04-06T18:40:28;10.05;;;9.02;;
1410;SDS011;700;51.906;8.404;2023-04-06T18:45:35;10.23;;;8.40;;
1410;SDS011;700;51.906;8.404;2023-04-06T18:50:55;9.60;;;8.60;;
1410;SDS011;700;51.906;8.404;2023-04-06T18:56:00;14.77;;;9.90;;
1410;SDS011;700;51.906;8.404;2023-04-06T19:01:02;12.90;;;8.90;;
1410;SDS011;700;51.906;8.404;2023-04-06T19:06:05;12.83;;;10.67;;
1410;SDS011;700;51.906;8.404;2023-04-06T19:11:11;12.87;;;9.07;;
1410;SDS011;700;51.906;8.404;2023-04-06T19:16:14;11.10;;;8.00;;
1410;SDS011;700;51.906;8.404;2023-04-06T19:21:18;11.53;;;8.50;;
1410;SDS011;700;51.906;8.404;2023-04-06T19:26:20;12.37;;;8.83;;
1410;SDS011;700;51.906;8.404;2023-04-06T19:31:21;9.87;;;7.90;;
1410;SDS011;700;51.906;8.404;2023-04-06T19:36:26;10.43;;;8.37;;
1410;SDS011;700;51.906;8.404;2023-04-06T19:41:27;11.70;;;8.40;;
1410;SDS011;700;51.906;8.404;2023-04-06T19:46:28;9.57;;;8.33;;
1410;SDS011;700;51.906;8.404;2023-04-06T19:51:31;10.37;;;8.50;;
1410;SDS011;700;51.906;8.404;2023-04-06T19:56:33;9.43;;;7.70;;
1410;SDS011;700;51.906;8.404;2023-04-06T20:01:33;12.17;;;9.50;;
1410;SDS011;700;51.906;8.404;2023-04-06T20:06:39;10.43;;;7.77;;
1410;SDS011;700;51.906;8.404;2023-04-06T20:11:40;9.30;;;8.30;;
1410;SDS011;700;51.906;8.404;2023-04-06T20:16:42;11.43;;;8.67;;
1410;SDS011;700;51.906;8.404;2023-04-06T20:21:45;10.23;;;9.20;;
1410;SDS011;700;51.906;8.404;2023-04-06T20:26:47;12.87;;;8.97;;
1410;SDS011;700;51.906;8.404;2023-04-06T20:31:49;11.70;;;10.13;;
1410;SDS011;700;51.906;8.404;2023-04-06T20:36:50;10.57;;;9.17;;
1410;SDS011;700;51.906;8.404;2023-04-06T20:41:54;11.70;;;9.80;;
1410;SDS011;700;51.906;8.404;2023-04-06T20:46:54;12.10;;;9.90;;
1410;SDS011;700;51.906;8.404;2023-04-06T20:51:55;11.60;;;9.57;;
1410;SDS011;700;51.906;8.404;2023-04-06T20:56:58;11.87;;;10.63;;
1410;SDS011;700;51.906;8.404;2023-04-06T21:01:59;14.60;;;11.17;;
1410;SDS011;700;51.906;8.404;2023-04-06T21:07:02;13.73;;;11.63;;
1410;SDS011;700;51.906;8.404;2023-04-06T21:12:05;16.60;;;11.50;;
1410;SDS011;700;51.906;8.404;2023-04-06T21:17:06;13.30;;;11.70;;
1410;SDS011;700;51.906;8.404;2023-04-06T21:22:07;17.53;;;12.20;;
1410;SDS011;700;51.906;8.404;2023-04-06T21:27:10;17.33;;;14.00;;
1410;SDS011;700;51.906;8.404;2023-04-06T21:32:12;17.23;;;12.07;;
1410;SDS011;700;51.906;8.404;2023-04-06T21:37:13;16.50;;;11.50;;
1410;SDS011;700;51.906;8.404;2023-04-06T21:42:16;13.77;;;11.63;;
1410;SDS011;700;51.906;8.404;2023-04-06T21:47:19;16.27;;;12.47;;
1410;SDS011;700;51.906;8.404;2023-04-06T21:52:22;15.50;;;12.13;;
1410;SDS011;700;51.906;8.404;2023-04-06T21:57:25;17.07;;;12.60;;
1410;SDS011;700;51.906;8.404;2023-04-06T22:02:25;14.10;;;11.50;;
1410;SDS011;700;51.906;8.404;2023-04-06T22:07:27;16.20;;;11.80;;
1410;SDS011;700;51.906;8.404;2023-04-06T22:12:30;16.80;;;12.63;;
1410;SDS011;700;51.906;8.404;2023-04-06T22:17:31;14.90;;;11.83;;
1410;SDS011;700;51.906;8.404;2023-04-06T22:22:32;16.60;;;12.60;;
1410;SDS011;700;51.906;8.404;2023-04-06T22:27:32;14.03;;;12.17;;
1410;SDS011;700;51.906;8.404;2023-04-06T22:32:33;15.50;;;12.70;;
1410;SDS011;700;51.906;8.404;2023-04-06T22:37:34;16.03;;;12.77;;
1410;SDS011;700;51.906;8.404;2023-04-06T22:42:36;17.47;;;13.00;;
1410;SDS011;700;51.906;8.404;2023-04-06T22:47:37;14.07;;;12.57;;
1410;SDS011;700;51.906;8.404;2023-04-06T22:52:38;14.10;;;12.50;;
1410;SDS011;700;51.906;8.404;2023-04-06T22:57:41;14.27;;;12.77;;
1410;SDS011;700;51.906;8.404;2023-04-06T23:02:44;17.17;;;12.53;;
1410;SDS011;700;51.906;8.404;2023-04-06T23:07:44;13.20;;;11.43;;
1410;SDS011;700;51.906;8.404;2023-04-06T23:12:46;14.07;;;10.40;;
1410;SDS011;700;51.906;8.404;2023-04-06T23:17:49;13.43;;;11.80;;
1410;SDS011;700;51.906;8.404;2023-04-06T23:22:50;17.00;;;10.40;;
1410;SDS011;700;51.906;8.404;2023-04-06T23:27:51;13.17;;;11.47;;
1410;SDS011;700;51.906;8.404;2023-04-06T23:32:51;12.40;;;10.63;;
1410;SDS011;700;51.906;8.404;2023-04-06T23:37:52;13.30;;;11.70;;
1410;SDS011;700;51.906;8.404;2023-04-06T23:42:55;11.90;;;10.13;;
1410;SDS011;700;51.906;8.404;2023-04-06T23:47:55;12.40;;;10.47;;
1410;SDS011;700;51.906;8.404;2023-04-06T23:52:58;12.10;;;10.13;;
1410;SDS011;700;51.906;8.404;2023-04-06T23:57:59;13.50;;;11.37;;
